createdAt,value
2022-11-26T00:00:30.486Z,8.37
2022-11-26T00:02:58.248Z,8.36
2022-11-26T00:05:26.363Z,8.30
2022-11-26T00:07:56.520Z,8.33
2022-11-26T00:10:26.918Z,8.39
2022-11-26T00:12:58.174Z,8.43
2022-11-26T00:15:28.529Z,8.47
2022-11-26T00:17:57.243Z,8.47
2022-11-26T00:20:29.795Z,8.59
2022-11-26T00:23:01.402Z,8.64
2022-11-26T00:25:34.296Z,8.66
2022-11-26T00:28:03.405Z,8.62
2022-11-26T00:30:31.143Z,8.59
2022-11-26T00:32:59.164Z,8.55
2022-11-26T00:35:26.838Z,8.51
2022-11-26T00:37:56.338Z,8.57
2022-11-26T00:40:26.651Z,8.53
2022-11-26T00:43:01.282Z,8.65
2022-11-26T00:45:32.242Z,8.72
2022-11-26T00:48:01.634Z,8.71
2022-11-26T00:50:34.927Z,8.68
2022-11-26T00:53:02.597Z,8.61
2022-11-26T00:55:33.943Z,8.55
2022-11-26T00:58:02.411Z,8.55
2022-11-26T01:00:33.002Z,8.55
2022-11-26T01:03:01.110Z,8.60
2022-11-26T01:05:33.385Z,8.61
2022-11-26T01:08:07.928Z,8.59
2022-11-26T01:10:35.566Z,8.66
2022-11-26T01:13:03.152Z,8.67
2022-11-26T01:15:32.142Z,8.71
2022-11-26T01:17:59.769Z,8.74
2022-11-26T01:20:30.396Z,8.68
2022-11-26T01:22:59.528Z,8.56
2022-11-26T01:25:28.411Z,8.53
2022-11-26T01:27:56.137Z,8.55
2022-11-26T01:30:26.259Z,8.50
2022-11-26T01:32:55.206Z,8.44
2022-11-26T01:35:23.597Z,8.51
2022-11-26T01:37:51.326Z,8.54
2022-11-26T01:40:36.804Z,8.40
2022-11-26T01:43:07.537Z,8.32
2022-11-26T01:45:35.309Z,8.38
2022-11-26T01:48:21.737Z,8.39
2022-11-26T01:50:58.320Z,8.35
2022-11-26T01:53:45.020Z,8.32
2022-11-26T01:56:19.956Z,8.33
2022-11-26T01:58:52.091Z,8.24
2022-11-26T02:01:20.453Z,8.29
2022-11-26T02:03:56.862Z,8.38
2022-11-26T02:06:30.126Z,8.37
2022-11-26T02:08:57.838Z,8.39
2022-11-26T02:11:26.364Z,8.42
2022-11-26T02:13:57.178Z,8.40
2022-11-26T02:16:36.390Z,8.42
2022-11-26T02:19:23.098Z,8.36
2022-11-26T02:21:59.359Z,8.28
2022-11-26T02:24:39.749Z,8.27
2022-11-26T02:27:24.468Z,8.34
2022-11-26T02:30:07.491Z,8.31
2022-11-26T02:32:55.798Z,8.34
2022-11-26T02:35:34.064Z,8.38
2022-11-26T02:38:06.205Z,8.36
2022-11-26T02:40:33.952Z,8.45
2022-11-26T02:43:01.558Z,8.43
2022-11-26T02:45:36.249Z,8.38
2022-11-26T02:48:07.889Z,8.36
2022-11-26T02:50:42.098Z,8.39
2022-11-26T02:53:11.898Z,8.39
2022-11-26T02:55:42.404Z,8.40
2022-11-26T02:58:12.911Z,8.41
2022-11-26T03:00:43.985Z,8.42
2022-11-26T03:03:22.330Z,8.40
2022-11-26T03:05:51.639Z,8.52
2022-11-26T03:08:19.309Z,8.50
2022-11-26T03:10:46.973Z,8.58
2022-11-26T03:13:14.756Z,8.48
2022-11-26T03:15:43.703Z,8.46
2022-11-26T03:18:11.316Z,8.46
2022-11-26T03:20:38.960Z,8.42
2022-11-26T03:23:06.615Z,8.43
2022-11-26T03:25:34.527Z,8.42
2022-11-26T03:28:02.693Z,8.46
2022-11-26T03:30:30.325Z,8.43
2022-11-26T03:32:59.269Z,8.45
2022-11-26T03:35:26.951Z,8.43
2022-11-26T03:37:55.229Z,8.39
2022-11-26T03:40:22.856Z,8.36
2022-11-26T03:42:50.462Z,8.38
2022-11-26T03:45:18.137Z,8.38
2022-11-26T03:47:45.718Z,8.42
2022-11-26T03:50:14.953Z,8.45
2022-11-26T03:52:42.581Z,8.50
2022-11-26T03:55:10.938Z,8.47
2022-11-26T03:57:38.878Z,8.43
2022-11-26T04:00:09.221Z,8.40
2022-11-26T04:02:37.520Z,8.49
2022-11-26T04:05:05.952Z,8.49
2022-11-26T04:07:35.043Z,8.49
2022-11-26T04:10:02.724Z,8.48
2022-11-26T04:12:30.345Z,8.31
2022-11-26T04:14:57.970Z,8.18
2022-11-26T04:17:25.603Z,8.23
2022-11-26T04:19:53.287Z,8.14
2022-11-26T04:22:21.021Z,8.19
2022-11-26T04:24:49.964Z,8.23
2022-11-26T04:27:17.702Z,8.23
2022-11-26T04:29:45.270Z,8.19
2022-11-26T04:32:12.951Z,8.19
2022-11-26T04:34:40.880Z,8.11
2022-11-26T04:37:08.739Z,8.16
2022-11-26T04:39:37.336Z,8.29
2022-11-26T04:42:06.355Z,8.33
2022-11-26T04:44:34.058Z,8.37
2022-11-26T04:47:01.784Z,8.31
2022-11-26T04:49:29.356Z,8.34
2022-11-26T04:51:57.055Z,8.38
2022-11-26T04:54:24.677Z,8.43
2022-11-26T04:56:52.297Z,8.36
2022-11-26T04:59:21.254Z,8.24
2022-11-26T05:01:48.856Z,8.29
2022-11-26T05:04:16.457Z,8.25
2022-11-26T05:06:44.081Z,8.23
2022-11-26T05:09:11.648Z,8.23
2022-11-26T05:11:39.265Z,8.21
2022-11-26T05:14:06.934Z,8.30
2022-11-26T05:16:36.101Z,8.34
2022-11-26T05:19:03.840Z,8.35
2022-11-26T05:21:31.445Z,8.28
2022-11-26T05:23:59.083Z,8.31
2022-11-26T05:26:26.720Z,8.31
2022-11-26T05:28:54.359Z,8.32
2022-11-26T05:31:21.982Z,8.11
2022-11-26T05:33:50.957Z,8.04
2022-11-26T05:36:18.616Z,8.12
2022-11-26T05:38:46.199Z,8.05
2022-11-26T05:41:13.790Z,8.07
2022-11-26T05:43:41.403Z,8.11
2022-11-26T05:46:09.897Z,8.07
2022-11-26T05:48:37.540Z,8.03
2022-11-26T05:51:06.960Z,7.97
2022-11-26T05:53:34.567Z,8.00
2022-11-26T05:56:02.156Z,8.01
2022-11-26T05:58:29.773Z,8.02
2022-11-26T06:00:57.367Z,7.96
2022-11-26T06:03:25.190Z,7.94
2022-11-26T06:05:52.917Z,7.97
2022-11-26T06:08:21.886Z,7.97
2022-11-26T06:10:49.510Z,7.97
2022-11-26T06:13:17.438Z,7.99
2022-11-26T06:15:45.061Z,7.95
2022-11-26T06:18:12.725Z,7.94
2022-11-26T06:20:40.414Z,7.91
2022-11-26T06:23:08.099Z,7.92
2022-11-26T06:25:37.078Z,7.99
2022-11-26T06:28:04.758Z,8.05
2022-11-26T06:30:32.388Z,8.10
2022-11-26T06:33:00.068Z,8.12
2022-11-26T06:35:27.773Z,8.05
2022-11-26T06:37:55.350Z,8.07
2022-11-26T06:40:23.031Z,8.03
2022-11-26T06:42:53.995Z,8.06
2022-11-26T06:45:22.687Z,8.11
2022-11-26T06:47:52.123Z,8.11
2022-11-26T06:50:22.242Z,8.18
2022-11-26T06:52:52.015Z,8.17
2022-11-26T06:55:19.985Z,8.04
2022-11-26T06:57:50.429Z,8.10
2022-11-26T07:00:20.243Z,8.08
2022-11-26T07:02:48.111Z,8.08
2022-11-26T07:05:15.835Z,8.00
2022-11-26T07:07:43.445Z,7.92
2022-11-26T07:10:11.687Z,7.93
2022-11-26T07:12:39.289Z,8.02
2022-11-26T07:15:07.717Z,8.01
2022-11-26T07:17:36.667Z,8.09
2022-11-26T07:20:05.339Z,8.07
2022-11-26T07:22:32.951Z,8.05
2022-11-26T07:25:00.583Z,8.28
2022-11-26T07:27:28.187Z,8.23
2022-11-26T07:29:55.773Z,8.30
2022-11-26T07:32:23.358Z,8.28
2022-11-26T07:34:52.318Z,8.18
2022-11-26T07:37:19.983Z,8.25
2022-11-26T07:39:48.262Z,8.30
2022-11-26T07:42:15.861Z,8.32
2022-11-26T07:44:43.665Z,8.35
2022-11-26T07:47:11.275Z,8.20
2022-11-26T07:49:39.376Z,8.08
2022-11-26T07:52:08.331Z,7.93
2022-11-26T07:54:36.020Z,7.79
2022-11-26T07:57:03.715Z,7.71
2022-11-26T07:59:31.323Z,7.81
2022-11-26T08:01:59.075Z,7.85
2022-11-26T08:04:27.288Z,7.90
2022-11-26T08:06:54.941Z,7.91
2022-11-26T08:09:23.881Z,8.00
2022-11-26T08:11:51.442Z,8.02
2022-11-26T08:14:19.070Z,8.01
2022-11-26T08:16:46.763Z,8.07
2022-11-26T08:19:14.877Z,8.09
2022-11-26T08:21:42.831Z,8.08
2022-11-26T08:24:14.891Z,8.23
2022-11-26T08:26:44.816Z,8.14
2022-11-26T08:29:12.692Z,8.17
2022-11-26T08:31:45.254Z,8.09
2022-11-26T08:34:15.960Z,8.09
2022-11-26T08:36:43.874Z,8.10
2022-11-26T08:39:13.986Z,8.02
2022-11-26T08:41:46.170Z,8.13
2022-11-26T08:44:18.214Z,8.12
2022-11-26T08:46:45.904Z,8.00
2022-11-26T08:49:14.911Z,7.88
2022-11-26T08:51:43.333Z,7.82
2022-11-26T08:54:11.039Z,7.81
2022-11-26T08:56:38.680Z,7.91
2022-11-26T08:59:07.702Z,7.84
2022-11-26T09:01:35.595Z,7.85
2022-11-26T09:04:04.777Z,7.88
2022-11-26T09:06:34.420Z,8.09
2022-11-26T09:09:15.045Z,8.12
2022-11-26T09:11:45.619Z,8.11
2022-11-26T09:14:15.621Z,8.06
2022-11-26T09:16:43.505Z,8.02
2022-11-26T09:19:12.781Z,7.99
2022-11-26T09:21:40.634Z,7.94
2022-11-26T09:24:08.618Z,7.92
2022-11-26T09:26:36.568Z,8.04
2022-11-26T09:29:04.560Z,8.14
2022-11-26T09:31:34.132Z,8.16
2022-11-26T09:34:03.507Z,8.34
2022-11-26T09:36:31.385Z,8.39
2022-11-26T09:39:00.201Z,8.33
2022-11-26T09:41:39.008Z,8.34
2022-11-26T09:44:20.959Z,8.41
2022-11-26T09:47:14.823Z,8.49
2022-11-26T09:49:53.014Z,8.50
2022-11-26T09:52:23.551Z,8.29
2022-11-26T09:54:56.126Z,8.23
2022-11-26T09:57:30.635Z,8.21
2022-11-26T09:59:58.256Z,8.32
2022-11-26T10:02:27.236Z,8.39
2022-11-26T10:04:54.983Z,8.47
2022-11-26T10:07:45.203Z,8.51
2022-11-26T10:10:19.559Z,8.47
2022-11-26T10:13:18.658Z,8.39
2022-11-26T10:15:55.059Z,8.67
2022-11-26T10:18:35.785Z,8.65
2022-11-26T10:21:27.699Z,8.76
2022-11-26T10:24:15.106Z,8.83
2022-11-26T10:26:43.180Z,8.89
2022-11-26T10:29:22.346Z,8.85
2022-11-26T10:31:54.408Z,8.83
2022-11-26T10:34:32.284Z,8.76
2022-11-26T10:37:02.316Z,8.77
2022-11-26T10:39:29.900Z,8.89
2022-11-26T10:41:57.698Z,8.79
2022-11-26T10:44:30.744Z,8.77
2022-11-26T10:46:59.721Z,8.65
2022-11-26T10:49:30.838Z,8.55
2022-11-26T10:52:01.594Z,8.68
2022-11-26T10:54:34.191Z,8.72
2022-11-26T10:57:13.499Z,8.71
2022-11-26T10:59:48.275Z,8.71
2022-11-26T11:02:30.196Z,8.62
2022-11-26T11:05:02.111Z,9.00
2022-11-26T11:07:35.345Z,9.02
2022-11-26T11:10:06.066Z,9.16
2022-11-26T11:12:34.024Z,9.00
2022-11-26T11:15:20.799Z,8.97
2022-11-26T11:17:56.711Z,8.77
2022-11-26T11:20:32.846Z,8.80
2022-11-26T11:23:06.962Z,8.66
2022-11-26T11:25:36.709Z,8.67
2022-11-26T11:28:12.420Z,8.97
2022-11-26T11:30:45.682Z,8.74
2022-11-26T11:33:20.981Z,8.65
2022-11-26T11:36:03.197Z,8.73
2022-11-26T11:38:34.054Z,8.62
2022-11-26T11:41:05.907Z,8.73
2022-11-26T11:43:37.838Z,8.66
2022-11-26T11:46:31.884Z,8.84
2022-11-26T11:49:15.240Z,9.09
2022-11-26T11:51:51.155Z,8.91
2022-11-26T11:54:22.809Z,8.92
2022-11-26T11:56:56.097Z,9.02
2022-11-26T12:00:09.703Z,9.04
2022-11-26T12:02:59.705Z,9.08
2022-11-26T12:05:59.271Z,8.93
2022-11-26T12:08:40.642Z,8.95
2022-11-26T12:11:21.999Z,8.90
2022-11-26T12:13:54.191Z,8.90
2022-11-26T12:16:25.831Z,8.94
2022-11-26T12:19:01.296Z,8.82
2022-11-26T12:21:33.602Z,8.74
2022-11-26T12:24:05.777Z,8.75
2022-11-26T12:26:36.838Z,8.80
2022-11-26T12:29:09.756Z,9.10
2022-11-26T12:31:42.602Z,9.37
2022-11-26T12:34:16.447Z,9.50
2022-11-26T12:36:51.027Z,9.24
2022-11-26T12:39:30.771Z,9.19
2022-11-26T12:42:03.732Z,9.06
2022-11-26T12:44:37.736Z,8.98
2022-11-26T12:47:13.284Z,9.20
2022-11-26T12:50:04.201Z,9.37
2022-11-26T12:52:40.572Z,9.19
2022-11-26T12:55:20.574Z,9.11
2022-11-26T12:57:52.594Z,8.92
2022-11-26T13:00:26.106Z,8.82
2022-11-26T13:02:55.534Z,8.83
2022-11-26T13:05:34.088Z,8.81
2022-11-26T13:08:23.790Z,8.75
2022-11-26T13:11:10.001Z,8.72
2022-11-26T13:13:45.267Z,8.75
2022-11-26T13:16:23.742Z,8.79
2022-11-26T13:18:56.232Z,8.79
2022-11-26T13:21:56.852Z,8.93
2022-11-26T13:24:40.099Z,8.88
2022-11-26T13:27:25.202Z,8.90
2022-11-26T13:30:13.812Z,8.99
2022-11-26T13:33:19.045Z,8.94
2022-11-26T13:36:06.360Z,9.19
2022-11-26T13:38:49.436Z,9.05
2022-11-26T13:41:27.270Z,9.21
2022-11-26T13:44:31.850Z,9.20
2022-11-26T13:47:05.052Z,9.20
2022-11-26T13:49:40.305Z,9.12
2022-11-26T13:52:13.206Z,9.13
2022-11-26T13:54:46.423Z,9.08
2022-11-26T13:57:19.891Z,9.04
2022-11-26T13:59:48.344Z,8.97
2022-11-26T14:02:42.498Z,8.94
2022-11-26T14:05:13.173Z,9.00
2022-11-26T14:07:41.540Z,9.05
2022-11-26T14:10:30.453Z,9.19
2022-11-26T14:13:16.220Z,9.16
2022-11-26T14:15:56.548Z,9.12
2022-11-26T14:19:02.950Z,9.15
2022-11-26T14:21:31.547Z,9.12
2022-11-26T14:24:01.400Z,9.09
2022-11-26T14:26:34.089Z,9.10
2022-11-26T14:29:13.024Z,9.27
2022-11-26T14:31:43.935Z,9.15
2022-11-26T14:34:16.886Z,9.19
2022-11-26T14:36:56.941Z,9.07
2022-11-26T14:39:25.513Z,9.01
2022-11-26T14:42:03.750Z,8.94
2022-11-26T14:44:34.727Z,8.86
2022-11-26T14:47:10.939Z,8.79
2022-11-26T14:49:41.635Z,8.78
2022-11-26T14:52:17.943Z,8.74
2022-11-26T14:54:48.857Z,8.99
2022-11-26T14:57:20.690Z,8.97
2022-11-26T15:00:01.300Z,8.85
2022-11-26T15:02:32.042Z,8.83
2022-11-26T15:05:03.250Z,9.05
2022-11-26T15:07:33.683Z,8.91
2022-11-26T15:10:03.180Z,8.85
2022-11-26T15:12:33.337Z,8.76
2022-11-26T15:15:04.982Z,8.73
2022-11-26T15:17:34.379Z,8.82
2022-11-26T15:20:05.387Z,9.15
2022-11-26T15:22:38.145Z,9.35
2022-11-26T15:25:06.986Z,9.20
2022-11-26T15:27:37.884Z,9.11
2022-11-26T15:30:20.251Z,9.11
2022-11-26T15:32:48.022Z,9.40
2022-11-26T15:35:17.431Z,9.51
2022-11-26T15:37:45.731Z,9.50
2022-11-26T15:40:31.703Z,9.41
2022-11-26T15:43:03.897Z,9.46
2022-11-26T15:45:41.155Z,9.38
2022-11-26T15:48:27.530Z,9.35
2022-11-26T15:51:01.508Z,9.12
2022-11-26T15:53:33.905Z,9.09
2022-11-26T15:56:02.583Z,9.17
2022-11-26T15:58:43.315Z,9.27
2022-11-26T16:01:18.760Z,9.26
2022-11-26T16:03:48.314Z,9.06
2022-11-26T16:06:29.011Z,9.14
2022-11-26T16:09:00.564Z,9.36
2022-11-26T16:11:28.542Z,9.21
2022-11-26T16:13:56.313Z,9.09
2022-11-26T16:16:27.048Z,8.93
2022-11-26T16:18:58.761Z,8.81
2022-11-26T16:21:29.573Z,8.81
2022-11-26T16:24:00.839Z,8.99
2022-11-26T16:26:29.111Z,9.14
2022-11-26T16:28:56.894Z,9.17
2022-11-26T16:31:25.968Z,9.23
2022-11-26T16:33:53.735Z,9.24
2022-11-26T16:36:24.035Z,9.27
2022-11-26T16:38:52.891Z,9.28
2022-11-26T16:41:22.376Z,9.32
2022-11-26T16:43:50.945Z,9.26
2022-11-26T16:46:21.287Z,9.09
2022-11-26T16:48:50.992Z,9.10
2022-11-26T16:51:19.040Z,9.22
2022-11-26T16:53:46.920Z,9.17
2022-11-26T16:56:20.481Z,9.03
2022-11-26T16:58:48.361Z,8.90
2022-11-26T17:01:15.959Z,8.81
2022-11-26T17:03:43.893Z,8.91
2022-11-26T17:06:16.834Z,9.06
2022-11-26T17:08:49.425Z,9.00
2022-11-26T17:11:18.406Z,8.89
2022-11-26T17:13:46.096Z,8.85
2022-11-26T17:16:15.703Z,8.74
2022-11-26T17:18:43.546Z,8.66
2022-11-26T17:21:11.439Z,8.64
2022-11-26T17:23:40.705Z,8.61
2022-11-26T17:26:18.252Z,8.75
2022-11-26T17:28:45.863Z,8.66
2022-11-26T17:31:13.503Z,8.52
2022-11-26T17:33:41.288Z,8.53
2022-11-26T17:36:16.751Z,8.44
2022-11-26T17:38:45.810Z,8.79
2022-11-26T17:41:13.984Z,8.73
2022-11-26T17:43:41.575Z,8.74
2022-11-26T17:46:16.077Z,8.71
2022-11-26T17:48:43.930Z,8.75
2022-11-26T17:51:14.079Z,8.81
2022-11-26T17:53:42.444Z,8.82
2022-11-26T17:56:18.264Z,8.84
2022-11-26T17:58:46.183Z,8.82
2022-11-26T18:01:14.763Z,8.84
2022-11-26T18:03:42.539Z,8.75
2022-11-26T18:06:15.866Z,8.77
2022-11-26T18:08:44.059Z,8.81
2022-11-26T18:11:14.736Z,8.82
2022-11-26T18:13:42.502Z,8.66
2022-11-26T18:16:10.130Z,8.61
2022-11-26T18:18:37.746Z,8.49
2022-11-26T18:21:06.143Z,8.43
2022-11-26T18:23:33.873Z,8.39
2022-11-26T18:26:01.841Z,8.39
2022-11-26T18:28:30.840Z,8.36
2022-11-26T18:30:59.538Z,8.35
2022-11-26T18:33:27.277Z,8.46
2022-11-26T18:35:54.915Z,8.44
2022-11-26T18:38:24.895Z,8.43
2022-11-26T18:40:59.909Z,8.39
2022-11-26T18:43:27.523Z,8.45
2022-11-26T18:45:56.747Z,8.46
2022-11-26T18:48:24.503Z,8.30
2022-11-26T18:50:57.017Z,8.30
2022-11-26T18:53:25.815Z,8.24
2022-11-26T18:55:54.009Z,8.14
2022-11-26T18:58:21.795Z,8.11
2022-11-26T19:00:50.956Z,7.98
2022-11-26T19:03:20.042Z,7.93
2022-11-26T19:05:50.459Z,7.97
2022-11-26T19:08:18.547Z,7.88
2022-11-26T19:10:46.719Z,7.93
2022-11-26T19:13:14.769Z,8.01
2022-11-26T19:15:43.211Z,8.06
2022-11-26T19:18:12.908Z,8.09
2022-11-26T19:20:49.608Z,8.01
2022-11-26T19:23:17.721Z,7.96
2022-11-26T19:25:45.704Z,7.93
2022-11-26T19:28:13.347Z,7.98
2022-11-26T19:30:40.964Z,7.84
2022-11-26T19:33:08.896Z,7.81
2022-11-26T19:35:39.861Z,7.70
2022-11-26T19:38:08.924Z,7.66
2022-11-26T19:40:36.510Z,7.77
2022-11-26T19:43:04.073Z,7.80
2022-11-26T19:45:31.700Z,7.71
2022-11-26T19:47:59.296Z,7.72
2022-11-26T19:50:26.912Z,7.65
2022-11-26T19:52:54.508Z,7.66
2022-11-26T19:55:23.564Z,7.70
2022-11-26T19:57:51.156Z,7.78
2022-11-26T20:00:19.241Z,7.79
2022-11-26T20:02:46.871Z,7.90
2022-11-26T20:05:14.795Z,7.99
2022-11-26T20:07:44.166Z,8.04
2022-11-26T20:10:12.633Z,7.97
2022-11-26T20:12:41.604Z,7.94
2022-11-26T20:15:10.960Z,7.87
2022-11-26T20:17:38.563Z,7.73
2022-11-26T20:20:07.448Z,7.61
2022-11-26T20:22:37.403Z,7.58
2022-11-26T20:25:05.787Z,7.44
2022-11-26T20:27:33.439Z,7.47
2022-11-26T20:30:02.417Z,7.54
2022-11-26T20:32:30.047Z,7.60
2022-11-26T20:34:58.000Z,7.57
2022-11-26T20:37:25.639Z,7.55
2022-11-26T20:39:53.196Z,7.57
2022-11-26T20:42:20.854Z,7.57
2022-11-26T20:44:48.518Z,7.62
2022-11-26T20:47:17.485Z,7.67
2022-11-26T20:49:45.276Z,7.71
2022-11-26T20:52:13.080Z,7.72
2022-11-26T20:54:41.100Z,7.85
2022-11-26T20:57:08.735Z,7.90
2022-11-26T20:59:36.460Z,8.07
2022-11-26T21:02:04.417Z,8.03
2022-11-26T21:04:34.047Z,7.99
2022-11-26T21:07:01.685Z,7.92
2022-11-26T21:09:29.261Z,7.89
2022-11-26T21:11:57.318Z,7.65
2022-11-26T21:14:25.067Z,7.44
2022-11-26T21:16:52.813Z,7.53
2022-11-26T21:19:20.455Z,7.84
2022-11-26T21:21:49.458Z,7.85
2022-11-26T21:24:17.096Z,7.87
2022-11-26T21:26:44.675Z,7.83
2022-11-26T21:29:13.285Z,7.84
2022-11-26T21:31:41.069Z,7.59
2022-11-26T21:34:09.017Z,7.51
2022-11-26T21:36:37.581Z,7.31
2022-11-26T21:39:07.067Z,7.45
2022-11-26T21:41:34.972Z,7.62
2022-11-26T21:44:03.939Z,7.71
2022-11-26T21:46:37.965Z,7.56
2022-11-26T21:49:06.894Z,7.45
2022-11-26T21:51:34.856Z,7.64
2022-11-26T21:54:02.452Z,7.53
2022-11-26T21:56:32.793Z,7.48
2022-11-26T21:59:01.921Z,7.42
2022-11-26T22:01:31.633Z,7.48
2022-11-26T22:04:00.955Z,7.49
2022-11-26T22:06:28.720Z,7.36
2022-11-26T22:08:56.775Z,7.17
2022-11-26T22:11:26.065Z,7.12
2022-11-26T22:13:55.423Z,7.10
2022-11-26T22:16:24.942Z,6.93
2022-11-26T22:18:53.794Z,6.74
2022-11-26T22:21:23.129Z,6.64
2022-11-26T22:23:51.479Z,6.60
2022-11-26T22:26:19.611Z,6.84
2022-11-26T22:28:47.507Z,6.95
2022-11-26T22:31:19.617Z,6.97
2022-11-26T22:33:47.396Z,7.26
2022-11-26T22:36:15.334Z,7.52
2022-11-26T22:38:43.903Z,7.56
2022-11-26T22:41:14.256Z,7.49
2022-11-26T22:43:42.577Z,7.29
2022-11-26T22:46:12.152Z,7.12
2022-11-26T22:48:41.845Z,7.00
2022-11-26T22:51:10.181Z,7.11
2022-11-26T22:53:37.979Z,7.06
2022-11-26T22:56:06.934Z,7.13
2022-11-26T22:58:35.780Z,7.08
2022-11-26T23:01:06.417Z,6.98
2022-11-26T23:03:36.851Z,6.91
2022-11-26T23:06:08.102Z,7.22
2022-11-26T23:08:36.211Z,7.23
2022-11-26T23:11:06.971Z,7.22
2022-11-26T23:13:34.583Z,7.35
2022-11-26T23:16:02.438Z,7.29
2022-11-26T23:18:30.112Z,7.16
2022-11-26T23:21:10.536Z,6.97
2022-11-26T23:23:39.777Z,6.92
2022-11-26T23:26:09.164Z,6.89
2022-11-26T23:28:37.985Z,6.84
2022-11-26T23:31:09.107Z,6.87
2022-11-26T23:33:37.148Z,6.75
2022-11-26T23:36:05.259Z,6.59
2022-11-26T23:38:34.239Z,6.68
2022-11-26T23:41:03.534Z,6.88
2022-11-26T23:43:32.116Z,6.90
2022-11-26T23:46:03.903Z,6.91
2022-11-26T23:48:32.464Z,6.89
2022-11-26T23:51:00.365Z,6.72
2022-11-26T23:53:28.183Z,6.61
2022-11-26T23:56:02.655Z,6.54
2022-11-26T23:58:30.755Z,6.59
